sensor_id;sensor_type;location;lat;lon;timestamp;P1;durP1;ratioP1;P2;durP2;ratioP2
44222;SDS011;29895;48.804;9.386;2023-03-01T00:01:24;33.40;;;13.93;;
44222;SDS011;29895;48.804;9.386;2023-03-01T00:03:52;32.63;;;13.60;;
44222;SDS011;29895;48.804;9.386;2023-03-01T00:06:19;28.73;;;13.02;;
44222;SDS011;29895;48.804;9.386;2023-03-01T00:08:45;31.50;;;14.05;;
44222;SDS011;29895;48.804;9.386;2023-03-01T00:11:12;30.02;;;12.57;;
44222;SDS011;29895;48.804;9.386;2023-03-01T00:13:40;33.78;;;15.65;;
44222;SDS011;29895;48.804;9.386;2023-03-01T00:16:09;35.08;;;14.15;;
44222;SDS011;29895;48.804;9.386;2023-03-01T00:18:36;30.75;;;14.25;;
44222;SDS011;29895;48.804;9.386;2023-03-01T00:21:01;33.78;;;16.02;;
44222;SDS011;29895;48.804;9.386;2023-03-01T00:23:27;39.65;;;15.45;;
44222;SDS011;29895;48.804;9.386;2023-03-01T00:25:53;44.47;;;18.05;;
44222;SDS011;29895;48.804;9.386;2023-03-01T00:28:19;57.97;;;18.70;;
44222;SDS011;29895;48.804;9.386;2023-03-01T00:30:46;51.13;;;17.45;;
44222;SDS011;29895;48.804;9.386;2023-03-01T00:33:12;45.08;;;17.58;;
44222;SDS011;29895;48.804;9.386;2023-03-01T00:35:37;41.80;;;15.30;;
44222;SDS011;29895;48.804;9.386;2023-03-01T00:38:03;33.30;;;15.57;;
44222;SDS011;29895;48.804;9.386;2023-03-01T00:40:30;34.55;;;14.50;;
44222;SDS011;29895;48.804;9.386;2023-03-01T00:42:57;30.58;;;13.43;;
44222;SDS011;29895;48.804;9.386;2023-03-01T00:45:23;28.17;;;13.60;;
44222;SDS011;29895;48.804;9.386;2023-03-01T00:47:49;34.92;;;14.18;;
44222;SDS011;29895;48.804;9.386;2023-03-01T00:50:15;29.17;;;12.70;;
44222;SDS011;29895;48.804;9.386;2023-03-01T00:52:41;28.65;;;14.73;;
44222;SDS011;29895;48.804;9.386;2023-03-01T00:55:07;34.75;;;15.50;;
44222;SDS011;29895;48.804;9.386;2023-03-01T00:57:33;34.20;;;14.57;;
44222;SDS011;29895;48.804;9.386;2023-03-01T00:59:59;44.67;;;17.55;;
44222;SDS011;29895;48.804;9.386;2023-03-01T01:02:24;37.05;;;16.40;;
44222;SDS011;29895;48.804;9.386;2023-03-01T01:04:50;37.25;;;16.40;;
44222;SDS011;29895;48.804;9.386;2023-03-01T01:07:16;37.40;;;16.65;;
44222;SDS011;29895;48.804;9.386;2023-03-01T01:09:42;47.35;;;17.70;;
44222;SDS011;29895;48.804;9.386;2023-03-01T01:12:08;37.60;;;16.13;;
44222;SDS011;29895;48.804;9.386;2023-03-01T01:14:34;39.85;;;16.40;;
44222;SDS011;29895;48.804;9.386;2023-03-01T01:17:00;34.40;;;15.13;;
44222;SDS011;29895;48.804;9.386;2023-03-01T01:19:26;39.22;;;16.35;;
44222;SDS011;29895;48.804;9.386;2023-03-01T01:21:51;39.53;;;16.77;;
44222;SDS011;29895;48.804;9.386;2023-03-01T01:24:17;37.70;;;16.13;;
44222;SDS011;29895;48.804;9.386;2023-03-01T01:26:44;43.25;;;16.75;;
44222;SDS011;29895;48.804;9.386;2023-03-01T01:29:10;39.80;;;17.38;;
44222;SDS011;29895;48.804;9.386;2023-03-01T01:31:37;45.63;;;17.73;;
44222;SDS011;29895;48.804;9.386;2023-03-01T01:34:04;41.90;;;17.08;;
44222;SDS011;29895;48.804;9.386;2023-03-01T01:36:32;34.90;;;15.48;;
44222;SDS011;29895;48.804;9.386;2023-03-01T01:38:59;36.63;;;16.50;;
44222;SDS011;29895;48.804;9.386;2023-03-01T01:41:26;43.47;;;16.58;;
44222;SDS011;29895;48.804;9.386;2023-03-01T01:46:41;35.97;;;16.42;;
44222;SDS011;29895;48.804;9.386;2023-03-01T01:51:57;33.42;;;14.75;;
44222;SDS011;29895;48.804;9.386;2023-03-01T01:54:33;32.50;;;14.57;;
44222;SDS011;29895;48.804;9.386;2023-03-01T01:57:03;38.72;;;17.63;;
44222;SDS011;29895;48.804;9.386;2023-03-01T01:59:32;39.38;;;16.13;;
44222;SDS011;29895;48.804;9.386;2023-03-01T02:01:59;38.97;;;16.25;;
44222;SDS011;29895;48.804;9.386;2023-03-01T02:04:28;37.08;;;17.10;;
44222;SDS011;29895;48.804;9.386;2023-03-01T02:06:58;34.85;;;15.70;;
44222;SDS011;29895;48.804;9.386;2023-03-01T02:09:28;45.30;;;18.00;;
44222;SDS011;29895;48.804;9.386;2023-03-01T02:11:56;38.13;;;16.05;;
44222;SDS011;29895;48.804;9.386;2023-03-01T02:14:22;36.75;;;14.80;;
44222;SDS011;29895;48.804;9.386;2023-03-01T02:16:48;34.83;;;15.38;;
44222;SDS011;29895;48.804;9.386;2023-03-01T02:19:19;37.80;;;15.85;;
44222;SDS011;29895;48.804;9.386;2023-03-01T02:22:20;35.78;;;14.70;;
44222;SDS011;29895;48.804;9.386;2023-03-01T02:25:07;35.58;;;15.65;;
44222;SDS011;29895;48.804;9.386;2023-03-01T02:30:43;39.05;;;16.27;;
44222;SDS011;29895;48.804;9.386;2023-03-01T02:33:30;33.63;;;16.02;;
44222;SDS011;29895;48.804;9.386;2023-03-01T02:35:57;37.67;;;15.18;;
44222;SDS011;29895;48.804;9.386;2023-03-01T02:38:25;34.35;;;14.90;;
44222;SDS011;29895;48.804;9.386;2023-03-01T02:40:52;37.58;;;15.48;;
44222;SDS011;29895;48.804;9.386;2023-03-01T02:43:19;38.80;;;16.55;;
44222;SDS011;29895;48.804;9.386;2023-03-01T02:45:48;40.55;;;17.33;;
44222;SDS011;29895;48.804;9.386;2023-03-01T02:48:15;36.63;;;16.60;;
44222;SDS011;29895;48.804;9.386;2023-03-01T02:56:15;35.33;;;16.25;;
44222;SDS011;29895;48.804;9.386;2023-03-01T02:58:41;41.75;;;15.63;;
44222;SDS011;29895;48.804;9.386;2023-03-01T03:01:16;36.00;;;15.98;;
44222;SDS011;29895;48.804;9.386;2023-03-01T03:03:42;40.20;;;15.75;;
44222;SDS011;29895;48.804;9.386;2023-03-01T03:06:07;39.75;;;17.02;;
44222;SDS011;29895;48.804;9.386;2023-03-01T03:08:34;38.25;;;16.15;;
44222;SDS011;29895;48.804;9.386;2023-03-01T03:10:59;36.30;;;16.08;;
44222;SDS011;29895;48.804;9.386;2023-03-01T03:13:25;36.20;;;16.77;;
44222;SDS011;29895;48.804;9.386;2023-03-01T03:15:54;37.03;;;15.88;;
44222;SDS011;29895;48.804;9.386;2023-03-01T03:18:21;32.35;;;16.60;;
44222;SDS011;29895;48.804;9.386;2023-03-01T03:20:50;31.60;;;15.05;;
44222;SDS011;29895;48.804;9.386;2023-03-01T03:23:18;35.92;;;15.80;;
44222;SDS011;29895;48.804;9.386;2023-03-01T03:25:47;35.67;;;16.33;;
44222;SDS011;29895;48.804;9.386;2023-03-01T03:30:42;31.00;;;15.07;;
44222;SDS011;29895;48.804;9.386;2023-03-01T03:33:10;34.03;;;15.85;;
44222;SDS011;29895;48.804;9.386;2023-03-01T03:35:41;37.15;;;17.02;;
44222;SDS011;29895;48.804;9.386;2023-03-01T03:38:13;30.98;;;14.43;;
44222;SDS011;29895;48.804;9.386;2023-03-01T03:43:14;34.03;;;16.08;;
44222;SDS011;29895;48.804;9.386;2023-03-01T03:45:43;41.08;;;16.35;;
44222;SDS011;29895;48.804;9.386;2023-03-01T03:48:09;35.17;;;16.10;;
44222;SDS011;29895;48.804;9.386;2023-03-01T03:50:36;37.03;;;15.25;;
44222;SDS011;29895;48.804;9.386;2023-03-01T03:53:04;33.28;;;14.65;;
44222;SDS011;29895;48.804;9.386;2023-03-01T03:55:32;34.40;;;15.27;;
44222;SDS011;29895;48.804;9.386;2023-03-01T03:57:59;31.98;;;15.15;;
44222;SDS011;29895;48.804;9.386;2023-03-01T04:00:32;33.97;;;15.43;;
44222;SDS011;29895;48.804;9.386;2023-03-01T04:02:59;38.33;;;15.98;;
44222;SDS011;29895;48.804;9.386;2023-03-01T04:05:25;39.03;;;16.52;;
44222;SDS011;29895;48.804;9.386;2023-03-01T04:07:51;32.80;;;16.38;;
44222;SDS011;29895;48.804;9.386;2023-03-01T04:10:27;35.13;;;16.02;;
44222;SDS011;29895;48.804;9.386;2023-03-01T04:15:24;31.17;;;14.98;;
44222;SDS011;29895;48.804;9.386;2023-03-01T04:17:51;40.97;;;17.67;;
44222;SDS011;29895;48.804;9.386;2023-03-01T04:20:22;40.47;;;19.27;;
44222;SDS011;29895;48.804;9.386;2023-03-01T04:22:56;42.35;;;18.27;;
44222;SDS011;29895;48.804;9.386;2023-03-01T04:25:35;39.92;;;16.63;;
44222;SDS011;29895;48.804;9.386;2023-03-01T04:28:05;44.80;;;17.02;;
44222;SDS011;29895;48.804;9.386;2023-03-01T04:30:31;43.20;;;17.27;;
44222;SDS011;29895;48.804;9.386;2023-03-01T04:33:01;38.70;;;16.75;;
44222;SDS011;29895;48.804;9.386;2023-03-01T04:35:31;41.88;;;18.02;;
44222;SDS011;29895;48.804;9.386;2023-03-01T04:37:57;34.65;;;17.33;;
44222;SDS011;29895;48.804;9.386;2023-03-01T04:40:23;38.42;;;17.70;;
44222;SDS011;29895;48.804;9.386;2023-03-01T04:42:49;38.47;;;16.55;;
44222;SDS011;29895;48.804;9.386;2023-03-01T04:45:15;33.83;;;16.60;;
44222;SDS011;29895;48.804;9.386;2023-03-01T04:47:42;34.70;;;16.98;;
44222;SDS011;29895;48.804;9.386;2023-03-01T04:50:09;40.80;;;17.33;;
44222;SDS011;29895;48.804;9.386;2023-03-01T04:52:36;36.25;;;16.73;;
44222;SDS011;29895;48.804;9.386;2023-03-01T04:55:02;34.78;;;16.77;;
44222;SDS011;29895;48.804;9.386;2023-03-01T04:57:28;37.20;;;17.73;;
44222;SDS011;29895;48.804;9.386;2023-03-01T04:59:55;40.92;;;18.75;;
44222;SDS011;29895;48.804;9.386;2023-03-01T05:02:20;40.05;;;19.10;;
44222;SDS011;29895;48.804;9.386;2023-03-01T05:04:46;41.83;;;18.73;;
44222;SDS011;29895;48.804;9.386;2023-03-01T05:07:12;38.70;;;17.90;;
44222;SDS011;29895;48.804;9.386;2023-03-01T05:09:44;44.10;;;17.83;;
44222;SDS011;29895;48.804;9.386;2023-03-01T05:12:10;42.50;;;18.00;;
44222;SDS011;29895;48.804;9.386;2023-03-01T05:14:36;44.97;;;17.85;;
44222;SDS011;29895;48.804;9.386;2023-03-01T05:17:03;38.08;;;17.33;;
44222;SDS011;29895;48.804;9.386;2023-03-01T05:19:29;36.67;;;16.00;;
44222;SDS011;29895;48.804;9.386;2023-03-01T05:21:56;34.30;;;16.58;;
44222;SDS011;29895;48.804;9.386;2023-03-01T05:24:31;37.67;;;17.20;;
44222;SDS011;29895;48.804;9.386;2023-03-01T05:26:58;35.53;;;17.25;;
44222;SDS011;29895;48.804;9.386;2023-03-01T05:29:26;39.40;;;17.40;;
44222;SDS011;29895;48.804;9.386;2023-03-01T05:31:56;39.47;;;17.15;;
44222;SDS011;29895;48.804;9.386;2023-03-01T05:34:27;41.22;;;17.30;;
44222;SDS011;29895;48.804;9.386;2023-03-01T05:36:54;42.25;;;17.58;;
44222;SDS011;29895;48.804;9.386;2023-03-01T05:39:21;35.95;;;16.05;;
44222;SDS011;29895;48.804;9.386;2023-03-01T05:41:48;38.10;;;16.40;;
44222;SDS011;29895;48.804;9.386;2023-03-01T05:44:17;36.55;;;16.70;;
44222;SDS011;29895;48.804;9.386;2023-03-01T05:46:43;35.40;;;17.92;;
44222;SDS011;29895;48.804;9.386;2023-03-01T05:49:10;38.67;;;17.77;;
44222;SDS011;29895;48.804;9.386;2023-03-01T05:51:36;37.45;;;16.85;;
44222;SDS011;29895;48.804;9.386;2023-03-01T05:54:01;35.72;;;16.55;;
44222;SDS011;29895;48.804;9.386;2023-03-01T05:56:27;41.95;;;18.80;;
44222;SDS011;29895;48.804;9.386;2023-03-01T05:58:54;39.22;;;17.90;;
44222;SDS011;29895;48.804;9.386;2023-03-01T06:01:21;39.78;;;18.90;;
44222;SDS011;29895;48.804;9.386;2023-03-01T06:03:47;40.63;;;17.83;;
44222;SDS011;29895;48.804;9.386;2023-03-01T06:06:13;40.58;;;17.45;;
44222;SDS011;29895;48.804;9.386;2023-03-01T06:08:38;38.80;;;17.95;;
44222;SDS011;29895;48.804;9.386;2023-03-01T06:11:04;35.47;;;17.23;;
44222;SDS011;29895;48.804;9.386;2023-03-01T06:13:30;40.28;;;16.95;;
44222;SDS011;29895;48.804;9.386;2023-03-01T06:15:55;44.83;;;17.70;;
44222;SDS011;29895;48.804;9.386;2023-03-01T06:18:21;49.28;;;19.85;;
44222;SDS011;29895;48.804;9.386;2023-03-01T06:20:52;36.55;;;18.55;;
44222;SDS011;29895;48.804;9.386;2023-03-01T06:23:19;46.00;;;18.25;;
44222;SDS011;29895;48.804;9.386;2023-03-01T06:25:48;44.58;;;18.60;;
44222;SDS011;29895;48.804;9.386;2023-03-01T06:28:14;36.80;;;17.13;;
44222;SDS011;29895;48.804;9.386;2023-03-01T06:30:40;38.88;;;17.58;;
44222;SDS011;29895;48.804;9.386;2023-03-01T06:33:06;43.63;;;18.02;;
44222;SDS011;29895;48.804;9.386;2023-03-01T06:35:31;34.47;;;16.85;;
44222;SDS011;29895;48.804;9.386;2023-03-01T06:37:58;38.33;;;17.85;;
44222;SDS011;29895;48.804;9.386;2023-03-01T06:40:25;39.72;;;17.23;;
44222;SDS011;29895;48.804;9.386;2023-03-01T06:42:51;40.45;;;17.40;;
44222;SDS011;29895;48.804;9.386;2023-03-01T06:45:19;40.33;;;17.58;;
44222;SDS011;29895;48.804;9.386;2023-03-01T06:47:46;38.03;;;18.25;;
44222;SDS011;29895;48.804;9.386;2023-03-01T06:50:12;43.50;;;18.85;;
44222;SDS011;29895;48.804;9.386;2023-03-01T06:52:39;37.22;;;17.75;;
44222;SDS011;29895;48.804;9.386;2023-03-01T06:55:05;37.95;;;17.50;;
44222;SDS011;29895;48.804;9.386;2023-03-01T06:57:31;40.13;;;18.30;;
44222;SDS011;29895;48.804;9.386;2023-03-01T06:59:57;36.47;;;17.70;;
44222;SDS011;29895;48.804;9.386;2023-03-01T07:02:22;40.25;;;18.90;;
44222;SDS011;29895;48.804;9.386;2023-03-01T07:04:49;42.85;;;18.17;;
44222;SDS011;29895;48.804;9.386;2023-03-01T07:07:15;45.95;;;19.65;;
44222;SDS011;29895;48.804;9.386;2023-03-01T07:09:42;35.42;;;17.77;;
44222;SDS011;29895;48.804;9.386;2023-03-01T07:12:11;46.83;;;19.83;;
44222;SDS011;29895;48.804;9.386;2023-03-01T07:14:37;47.83;;;21.90;;
44222;SDS011;29895;48.804;9.386;2023-03-01T07:17:03;40.08;;;18.65;;
44222;SDS011;29895;48.804;9.386;2023-03-01T07:19:29;39.42;;;17.33;;
44222;SDS011;29895;48.804;9.386;2023-03-01T07:21:54;50.55;;;23.02;;
44222;SDS011;29895;48.804;9.386;2023-03-01T07:24:21;38.67;;;18.50;;
44222;SDS011;29895;48.804;9.386;2023-03-01T07:26:50;33.05;;;15.52;;
44222;SDS011;29895;48.804;9.386;2023-03-01T07:29:17;40.53;;;17.52;;
44222;SDS011;29895;48.804;9.386;2023-03-01T07:31:43;37.75;;;17.40;;
44222;SDS011;29895;48.804;9.386;2023-03-01T07:34:09;36.67;;;18.10;;
44222;SDS011;29895;48.804;9.386;2023-03-01T07:36:35;40.38;;;18.45;;
44222;SDS011;29895;48.804;9.386;2023-03-01T07:39:01;59.58;;;24.70;;
44222;SDS011;29895;48.804;9.386;2023-03-01T07:41:28;45.95;;;21.17;;
44222;SDS011;29895;48.804;9.386;2023-03-01T07:43:54;44.60;;;19.33;;
44222;SDS011;29895;48.804;9.386;2023-03-01T07:46:20;44.65;;;20.10;;
44222;SDS011;29895;48.804;9.386;2023-03-01T07:48:46;37.78;;;16.95;;
44222;SDS011;29895;48.804;9.386;2023-03-01T07:51:12;40.25;;;18.02;;
44222;SDS011;29895;48.804;9.386;2023-03-01T07:53:38;43.67;;;18.75;;
44222;SDS011;29895;48.804;9.386;2023-03-01T07:56:08;40.38;;;19.25;;
44222;SDS011;29895;48.804;9.386;2023-03-01T07:58:36;54.80;;;25.35;;
44222;SDS011;29895;48.804;9.386;2023-03-01T08:01:06;39.28;;;18.92;;
44222;SDS011;29895;48.804;9.386;2023-03-01T08:03:33;43.47;;;18.30;;
44222;SDS011;29895;48.804;9.386;2023-03-01T08:06:00;38.97;;;18.35;;
44222;SDS011;29895;48.804;9.386;2023-03-01T08:08:27;38.50;;;18.25;;
44222;SDS011;29895;48.804;9.386;2023-03-01T08:10:57;41.92;;;18.00;;
44222;SDS011;29895;48.804;9.386;2023-03-01T08:13:24;37.75;;;17.92;;
44222;SDS011;29895;48.804;9.386;2023-03-01T08:15:49;42.53;;;18.92;;
44222;SDS011;29895;48.804;9.386;2023-03-01T08:18:16;41.53;;;19.00;;
44222;SDS011;29895;48.804;9.386;2023-03-01T08:20:42;43.40;;;19.40;;
44222;SDS011;29895;48.804;9.386;2023-03-01T08:23:08;43.10;;;19.65;;
44222;SDS011;29895;48.804;9.386;2023-03-01T08:25:33;38.20;;;17.77;;
44222;SDS011;29895;48.804;9.386;2023-03-01T08:27:59;38.00;;;18.17;;
44222;SDS011;29895;48.804;9.386;2023-03-01T08:30:25;43.85;;;18.88;;
44222;SDS011;29895;48.804;9.386;2023-03-01T08:32:51;43.92;;;19.08;;
44222;SDS011;29895;48.804;9.386;2023-03-01T08:35:17;37.67;;;17.92;;
44222;SDS011;29895;48.804;9.386;2023-03-01T08:37:43;37.42;;;18.50;;
44222;SDS011;29895;48.804;9.386;2023-03-01T08:40:08;45.17;;;19.10;;
44222;SDS011;29895;48.804;9.386;2023-03-01T08:42:35;43.47;;;18.20;;
44222;SDS011;29895;48.804;9.386;2023-03-01T08:45:02;33.85;;;18.67;;
44222;SDS011;29895;48.804;9.386;2023-03-01T08:47:28;35.58;;;17.77;;
44222;SDS011;29895;48.804;9.386;2023-03-01T08:49:54;45.60;;;18.85;;
44222;SDS011;29895;48.804;9.386;2023-03-01T08:52:20;37.13;;;17.77;;
44222;SDS011;29895;48.804;9.386;2023-03-01T08:54:49;42.42;;;19.13;;
44222;SDS011;29895;48.804;9.386;2023-03-01T08:57:15;35.70;;;17.38;;
44222;SDS011;29895;48.804;9.386;2023-03-01T08:59:40;39.22;;;18.15;;
44222;SDS011;29895;48.804;9.386;2023-03-01T09:02:10;40.63;;;20.02;;
44222;SDS011;29895;48.804;9.386;2023-03-01T09:04:38;36.58;;;17.67;;
44222;SDS011;29895;48.804;9.386;2023-03-01T09:07:04;37.97;;;16.60;;
44222;SDS011;29895;48.804;9.386;2023-03-01T09:09:29;36.08;;;18.48;;
44222;SDS011;29895;48.804;9.386;2023-03-01T09:11:55;38.72;;;18.88;;
44222;SDS011;29895;48.804;9.386;2023-03-01T09:14:21;37.15;;;17.70;;
44222;SDS011;29895;48.804;9.386;2023-03-01T09:16:46;40.80;;;18.67;;
44222;SDS011;29895;48.804;9.386;2023-03-01T09:19:12;33.58;;;17.25;;
44222;SDS011;29895;48.804;9.386;2023-03-01T09:21:38;38.83;;;18.48;;
44222;SDS011;29895;48.804;9.386;2023-03-01T09:24:04;32.80;;;16.58;;
44222;SDS011;29895;48.804;9.386;2023-03-01T09:26:30;35.22;;;17.45;;
44222;SDS011;29895;48.804;9.386;2023-03-01T09:28:56;41.42;;;19.40;;
44222;SDS011;29895;48.804;9.386;2023-03-01T09:31:22;36.83;;;19.02;;
44222;SDS011;29895;48.804;9.386;2023-03-01T09:33:50;37.53;;;17.60;;
44222;SDS011;29895;48.804;9.386;2023-03-01T09:36:19;37.92;;;17.50;;
44222;SDS011;29895;48.804;9.386;2023-03-01T09:38:46;40.63;;;17.90;;
44222;SDS011;29895;48.804;9.386;2023-03-01T09:41:26;33.88;;;17.90;;
44222;SDS011;29895;48.804;9.386;2023-03-01T09:44:10;36.75;;;17.95;;
44222;SDS011;29895;48.804;9.386;2023-03-01T09:46:47;35.25;;;17.83;;
44222;SDS011;29895;48.804;9.386;2023-03-01T09:49:18;35.83;;;16.52;;
44222;SDS011;29895;48.804;9.386;2023-03-01T09:54:34;41.30;;;18.45;;
44222;SDS011;29895;48.804;9.386;2023-03-01T09:57:19;39.35;;;18.63;;
44222;SDS011;29895;48.804;9.386;2023-03-01T10:00:02;36.45;;;16.70;;
44222;SDS011;29895;48.804;9.386;2023-03-01T10:10:50;36.10;;;17.60;;
44222;SDS011;29895;48.804;9.386;2023-03-01T10:16:46;34.53;;;17.80;;
44222;SDS011;29895;48.804;9.386;2023-03-01T10:18:55;36.28;;;17.60;;
44222;SDS011;29895;48.804;9.386;2023-03-01T10:21:28;32.28;;;16.08;;
44222;SDS011;29895;48.804;9.386;2023-03-01T10:23:56;35.75;;;17.38;;
44222;SDS011;29895;48.804;9.386;2023-03-01T10:26:36;35.65;;;17.15;;
44222;SDS011;29895;48.804;9.386;2023-03-01T10:31:37;33.38;;;15.20;;
44222;SDS011;29895;48.804;9.386;2023-03-01T10:34:13;36.40;;;15.77;;
44222;SDS011;29895;48.804;9.386;2023-03-01T10:36:41;31.10;;;15.90;;
44222;SDS011;29895;48.804;9.386;2023-03-01T10:39:14;35.75;;;16.95;;
44222;SDS011;29895;48.804;9.386;2023-03-01T10:41:51;30.50;;;15.95;;
44222;SDS011;29895;48.804;9.386;2023-03-01T10:47:16;35.38;;;16.20;;
44222;SDS011;29895;48.804;9.386;2023-03-01T10:52:34;31.65;;;15.77;;
44222;SDS011;29895;48.804;9.386;2023-03-01T10:55:47;27.45;;;13.30;;
44222;SDS011;29895;48.804;9.386;2023-03-01T11:03:14;26.58;;;15.38;;
44222;SDS011;29895;48.804;9.386;2023-03-01T11:06:00;31.02;;;15.65;;
44222;SDS011;29895;48.804;9.386;2023-03-01T11:08:40;36.28;;;17.40;;
44222;SDS011;29895;48.804;9.386;2023-03-01T11:16:34;28.53;;;15.70;;
44222;SDS011;29895;48.804;9.386;2023-03-01T11:19:13;32.03;;;16.13;;
44222;SDS011;29895;48.804;9.386;2023-03-01T11:24:49;29.27;;;15.27;;
44222;SDS011;29895;48.804;9.386;2023-03-01T11:29:46;30.00;;;14.98;;
44222;SDS011;29895;48.804;9.386;2023-03-01T11:32:32;31.02;;;16.23;;
44222;SDS011;29895;48.804;9.386;2023-03-01T11:35:25;31.25;;;15.43;;
44222;SDS011;29895;48.804;9.386;2023-03-01T11:43:41;30.08;;;14.48;;
44222;SDS011;29895;48.804;9.386;2023-03-01T11:57:27;32.60;;;15.20;;
44222;SDS011;29895;48.804;9.386;2023-03-01T12:00:42;31.33;;;15.68;;
44222;SDS011;29895;48.804;9.386;2023-03-01T12:17:43;35.85;;;15.45;;
44222;SDS011;29895;48.804;9.386;2023-03-01T12:20:42;30.58;;;15.40;;
44222;SDS011;29895;48.804;9.386;2023-03-01T12:23:30;25.38;;;13.98;;
44222;SDS011;29895;48.804;9.386;2023-03-01T12:31:58;29.98;;;14.70;;
44222;SDS011;29895;48.804;9.386;2023-03-01T12:48:45;31.48;;;14.52;;
44222;SDS011;29895;48.804;9.386;2023-03-01T12:51:24;25.40;;;14.00;;
44222;SDS011;29895;48.804;9.386;2023-03-01T12:53:55;28.67;;;14.63;;
44222;SDS011;29895;48.804;9.386;2023-03-01T12:56:24;24.48;;;12.85;;
44222;SDS011;29895;48.804;9.386;2023-03-01T13:07:13;29.13;;;14.80;;
44222;SDS011;29895;48.804;9.386;2023-03-01T13:17:52;26.88;;;12.77;;
44222;SDS011;29895;48.804;9.386;2023-03-01T13:20:22;24.75;;;13.43;;
44222;SDS011;29895;48.804;9.386;2023-03-01T13:25:35;24.08;;;12.45;;
44222;SDS011;29895;48.804;9.386;2023-03-01T13:31:02;26.83;;;13.15;;
44222;SDS011;29895;48.804;9.386;2023-03-01T13:35:55;23.65;;;12.88;;
44222;SDS011;29895;48.804;9.386;2023-03-01T13:39:25;24.85;;;13.13;;
44222;SDS011;29895;48.804;9.386;2023-03-01T13:41:47;21.73;;;11.93;;
44222;SDS011;29895;48.804;9.386;2023-03-01T13:46:45;24.48;;;12.98;;
44222;SDS011;29895;48.804;9.386;2023-03-01T13:49:15;25.40;;;12.75;;
44222;SDS011;29895;48.804;9.386;2023-03-01T13:51:46;32.53;;;16.15;;
44222;SDS011;29895;48.804;9.386;2023-03-01T13:54:14;28.50;;;14.68;;
44222;SDS011;29895;48.804;9.386;2023-03-01T13:56:51;32.78;;;14.82;;
44222;SDS011;29895;48.804;9.386;2023-03-01T13:59:19;27.90;;;14.65;;
44222;SDS011;29895;48.804;9.386;2023-03-01T14:01:53;28.17;;;14.13;;
44222;SDS011;29895;48.804;9.386;2023-03-01T14:04:21;28.05;;;14.95;;
44222;SDS011;29895;48.804;9.386;2023-03-01T14:06:47;30.85;;;16.05;;
44222;SDS011;29895;48.804;9.386;2023-03-01T14:14:34;31.08;;;16.20;;
44222;SDS011;29895;48.804;9.386;2023-03-01T14:19:47;30.33;;;16.17;;
44222;SDS011;29895;48.804;9.386;2023-03-01T14:27:59;31.50;;;15.95;;
44222;SDS011;29895;48.804;9.386;2023-03-01T14:30:49;31.33;;;15.63;;
44222;SDS011;29895;48.804;9.386;2023-03-01T14:33:24;33.22;;;15.45;;
44222;SDS011;29895;48.804;9.386;2023-03-01T14:38:44;35.53;;;15.88;;
44222;SDS011;29895;48.804;9.386;2023-03-01T14:41:15;31.60;;;15.13;;
44222;SDS011;29895;48.804;9.386;2023-03-01T14:43:46;31.98;;;15.50;;
44222;SDS011;29895;48.804;9.386;2023-03-01T14:46:19;36.85;;;17.08;;
44222;SDS011;29895;48.804;9.386;2023-03-01T14:48:48;33.30;;;16.13;;
44222;SDS011;29895;48.804;9.386;2023-03-01T14:51:15;25.63;;;14.07;;
44222;SDS011;29895;48.804;9.386;2023-03-01T14:53:41;33.00;;;15.20;;
44222;SDS011;29895;48.804;9.386;2023-03-01T14:56:12;32.95;;;15.98;;
44222;SDS011;29895;48.804;9.386;2023-03-01T14:58:39;29.00;;;15.02;;
44222;SDS011;29895;48.804;9.386;2023-03-01T15:01:05;34.95;;;16.08;;
44222;SDS011;29895;48.804;9.386;2023-03-01T15:03:51;28.45;;;15.52;;
44222;SDS011;29895;48.804;9.386;2023-03-01T15:06:18;29.13;;;15.15;;
44222;SDS011;29895;48.804;9.386;2023-03-01T15:08:47;31.67;;;14.25;;
44222;SDS011;29895;48.804;9.386;2023-03-01T15:13:49;28.08;;;14.02;;
44222;SDS011;29895;48.804;9.386;2023-03-01T15:16:19;38.85;;;17.20;;
44222;SDS011;29895;48.804;9.386;2023-03-01T15:18:59;26.77;;;14.43;;
44222;SDS011;29895;48.804;9.386;2023-03-01T15:21:33;34.92;;;15.45;;
44222;SDS011;29895;48.804;9.386;2023-03-01T15:24:05;31.67;;;14.98;;
44222;SDS011;29895;48.804;9.386;2023-03-01T15:26:53;33.08;;;14.85;;
44222;SDS011;29895;48.804;9.386;2023-03-01T15:29:25;31.85;;;15.10;;
44222;SDS011;29895;48.804;9.386;2023-03-01T15:32:01;38.20;;;16.15;;
44222;SDS011;29895;48.804;9.386;2023-03-01T15:36:59;27.25;;;14.73;;
44222;SDS011;29895;48.804;9.386;2023-03-01T15:42:12;31.02;;;15.77;;
44222;SDS011;29895;48.804;9.386;2023-03-01T15:45:11;33.33;;;16.55;;
44222;SDS011;29895;48.804;9.386;2023-03-01T15:47:47;29.73;;;15.82;;
44222;SDS011;29895;48.804;9.386;2023-03-01T15:50:19;32.00;;;15.90;;
44222;SDS011;29895;48.804;9.386;2023-03-01T15:52:48;33.20;;;17.02;;
44222;SDS011;29895;48.804;9.386;2023-03-01T15:55:19;33.40;;;17.27;;
44222;SDS011;29895;48.804;9.386;2023-03-01T15:57:48;36.00;;;16.58;;
44222;SDS011;29895;48.804;9.386;2023-03-01T16:00:18;33.22;;;15.70;;
44222;SDS011;29895;48.804;9.386;2023-03-01T16:02:44;32.70;;;15.90;;
44222;SDS011;29895;48.804;9.386;2023-03-01T16:05:24;31.95;;;15.93;;
44222;SDS011;29895;48.804;9.386;2023-03-01T16:07:55;34.65;;;15.52;;
44222;SDS011;29895;48.804;9.386;2023-03-01T16:10:21;31.85;;;15.27;;
44222;SDS011;29895;48.804;9.386;2023-03-01T16:12:48;26.25;;;14.80;;
44222;SDS011;29895;48.804;9.386;2023-03-01T16:15:16;30.83;;;14.57;;
44222;SDS011;29895;48.804;9.386;2023-03-01T16:17:43;31.70;;;15.73;;
44222;SDS011;29895;48.804;9.386;2023-03-01T16:20:09;29.08;;;15.68;;
44222;SDS011;29895;48.804;9.386;2023-03-01T16:22:35;32.00;;;15.95;;
44222;SDS011;29895;48.804;9.386;2023-03-01T16:25:00;35.33;;;16.30;;
44222;SDS011;29895;48.804;9.386;2023-03-01T16:27:27;31.77;;;15.63;;
44222;SDS011;29895;48.804;9.386;2023-03-01T16:29:53;32.60;;;16.13;;
44222;SDS011;29895;48.804;9.386;2023-03-01T16:32:18;28.95;;;14.52;;
44222;SDS011;29895;48.804;9.386;2023-03-01T16:34:44;31.33;;;15.10;;
44222;SDS011;29895;48.804;9.386;2023-03-01T16:37:10;34.92;;;16.52;;
44222;SDS011;29895;48.804;9.386;2023-03-01T16:39:37;32.42;;;15.57;;
44222;SDS011;29895;48.804;9.386;2023-03-01T16:42:03;28.73;;;15.40;;
44222;SDS011;29895;48.804;9.386;2023-03-01T16:44:29;29.75;;;14.60;;
44222;SDS011;29895;48.804;9.386;2023-03-01T16:46:55;32.63;;;15.10;;
44222;SDS011;29895;48.804;9.386;2023-03-01T16:49:21;31.42;;;15.85;;
44222;SDS011;29895;48.804;9.386;2023-03-01T16:51:46;33.90;;;16.65;;
44222;SDS011;29895;48.804;9.386;2023-03-01T16:54:12;31.38;;;15.07;;
44222;SDS011;29895;48.804;9.386;2023-03-01T16:56:38;29.13;;;14.90;;
44222;SDS011;29895;48.804;9.386;2023-03-01T16:59:04;31.55;;;14.50;;
44222;SDS011;29895;48.804;9.386;2023-03-01T17:01:30;28.83;;;15.25;;
44222;SDS011;29895;48.804;9.386;2023-03-01T17:04:02;30.70;;;15.13;;
44222;SDS011;29895;48.804;9.386;2023-03-01T17:06:28;35.42;;;15.52;;
44222;SDS011;29895;48.804;9.386;2023-03-01T17:08:54;29.27;;;14.90;;
44222;SDS011;29895;48.804;9.386;2023-03-01T17:11:21;33.10;;;14.60;;
44222;SDS011;29895;48.804;9.386;2023-03-01T17:13:47;27.15;;;14.93;;
44222;SDS011;29895;48.804;9.386;2023-03-01T17:16:14;30.33;;;15.98;;